Time;durP1;ratioP1;P1;durP2;ratioP2;P2;SDS_P1;SDS_P2;PMS_P1;PMS_P2;Temp;Humidity;BMP_temperature;BMP_pressure;BME280_temperature;BME280_humidity;BME280_pressure;Samples;Min_cycle;Max_cycle;Signal;HPM_P1;HPM_P2
2022/09/01 00:01:28;;;;;;;1.08;0.70;;;14.90;99.90;;;;;;5015656;28;20177;-85
2022/09/01 00:03:58;;;;;;;0.77;0.77;;;13.90;99.90;;;;;;5033019;28;20204;-85
2022/09/01 00:06:24;;;;;;;0.40;0.40;;;14.40;99.90;;;;;;5032829;28;20180;-85
2022/09/01 00:08:50;;;;;;;0.57;0.57;;;;;;;;;;5033192;28;20180;-84
2022/09/01 00:11:16;;;;;;;0.90;0.70;;;13.70;99.90;;;;;;5015111;28;20534;-85
2022/09/01 00:13:42;;;;;;;0.85;0.60;;;;;;;;;;5033079;28;20271;-85
2022/09/01 00:16:08;;;;;;;0.98;0.70;;;13.60;99.90;;;;;;5032456;28;20185;-84
2022/09/01 00:18:34;;;;;;;1.00;1.00;;;;;;;;;;5015401;28;20179;-84
2022/09/01 00:21:00;;;;;;;0.75;0.70;;;;;;;;;;5015198;28;20180;-84
2022/09/01 00:23:28;;;;;;;4.25;0.50;;;13.80;99.90;;;;;;5032713;28;20245;-84
2022/09/01 00:25:55;;;;;;;0.60;0.60;;;13.50;99.90;;;;;;5033218;28;20207;-84
2022/09/01 00:28:21;;;;;;;0.50;0.50;;;;;;;;;;5015175;28;20226;-84
2022/09/01 00:30:47;;;;;;;0.55;0.55;;;;;;;;;;5032622;28;20697;-84
2022/09/01 00:33:13;;;;;;;0.98;0.90;;;13.70;99.90;;;;;;5032574;28;20223;-85
2022/09/01 00:35:38;;;;;;;1.25;0.38;;;;;;;;;;5032560;28;20608;-84
2022/09/01 00:38:04;;;;;;;0.85;0.85;;;;;;;;;;5015068;28;20283;-86
2022/09/01 00:40:30;;;;;;;0.50;0.50;;;;;;;;;;5032853;28;20227;-84
2022/09/01 00:42:56;;;;;;;1.02;0.93;;;;;;;;;;5032568;28;20180;-85
2022/09/01 00:45:22;;;;;;;0.68;0.55;;;;;;;;;;5032482;28;20180;-84
2022/09/01 00:47:48;;;;;;;0.40;0.40;;;13.30;99.90;;;;;;5014972;28;20222;-84
2022/09/01 00:50:16;;;;;;;0.60;0.50;;;13.60;99.90;;;;;;5014917;28;20185;-84
2022/09/01 00:52:48;;;;;;;0.50;0.50;;;13.60;99.90;;;;;;5015045;28;20172;-84
2022/09/01 00:55:31;;;;;;;2.17;0.80;;;13.40;99.90;;;;;;5032403;28;20181;-85
2022/09/01 00:57:59;;;;;;;0.85;0.85;;;13.10;99.90;;;;;;5032771;28;20184;-84
2022/09/01 01:00:28;;;;;;;1.05;0.70;;;13.80;99.90;;;;;;5032226;28;20657;-85
2022/09/01 01:02:57;;;;;;;0.45;0.45;;;13.90;99.90;;;;;;5032813;28;20307;-85
2022/09/01 01:05:26;;;;;;;0.30;0.30;;;13.20;99.90;;;;;;5032249;28;20263;-85
2022/09/01 01:07:54;;;;;;;1.48;1.17;;;14.00;99.90;;;;;;5032572;28;20248;-85
2022/09/01 01:10:21;;;;;;;0.50;0.50;;;13.60;99.90;;;;;;5014378;28;20185;-85
2022/09/01 01:12:52;;;;;;;0.30;0.28;;;13.40;99.90;;;;;;5032352;28;20204;-85
2022/09/01 01:15:19;;;;;;;1.17;1.08;;;13.70;99.90;;;;;;5031915;28;20609;-85
2022/09/01 01:17:44;;;;;;;0.50;0.45;;;13.10;99.90;;;;;;5032211;28;20196;-84
2022/09/01 01:23:19;;;;;;;0.65;0.50;;;13.70;99.90;;;;;;5032431;28;20171;-84
2022/09/01 01:25:58;;;;;;;0.50;0.50;;;13.80;99.90;;;;;;5032515;28;20172;-84
2022/09/01 01:28:30;;;;;;;1.48;0.68;;;13.20;99.90;;;;;;5017005;28;20180;-84
2022/09/01 01:31:04;;;;;;;0.38;0.38;;;13.80;99.90;;;;;;5035725;28;20699;-85
2022/09/01 01:33:40;;;;;;;0.82;0.82;;;13.40;99.90;;;;;;5035348;28;20188;-84
2022/09/01 01:36:12;;;;;;;0.68;0.68;;;13.40;99.90;;;;;;5035634;28;20315;-84
2022/09/01 01:38:42;;;;;;;0.68;0.35;;;13.70;99.90;;;;;;5035556;28;20591;-84
2022/09/01 01:41:09;;;;;;;0.47;0.47;;;13.60;99.90;;;;;;5035417;28;20191;-84
2022/09/01 01:43:36;;;;;;;1.00;0.40;;;;;;;;;;5001264;28;20231;-84
2022/09/01 01:46:04;;;;;;;0.50;0.50;;;13.60;99.90;;;;;;5017566;28;20219;-85
2022/09/01 01:48:33;;;;;;;0.47;0.47;;;13.40;99.90;;;;;;5035316;28;20172;-84
2022/09/01 01:51:00;;;;;;;0.50;0.50;;;12.90;99.90;;;;;;5035534;28;20597;-84
2022/09/01 01:53:27;;;;;;;0.77;0.77;;;12.80;99.90;;;;;;5035214;28;20181;-84
2022/09/01 01:55:52;;;;;;;1.80;1.38;;;13.20;99.90;;;;;;5035302;28;20215;-84
2022/09/01 01:58:20;;;;;;;0.57;0.55;;;13.20;99.90;;;;;;5017445;28;20177;-85
2022/09/01 02:00:48;;;;;;;0.65;0.40;;;12.90;99.90;;;;;;5035258;28;20212;-84
2022/09/01 02:03:17;;;;;;;1.35;0.75;;;13.20;99.90;;;;;;5035037;28;20239;-84
2022/09/01 02:05:46;;;;;;;1.38;0.70;;;13.10;99.90;;;;;;5035458;28;20672;-84
2022/09/01 02:08:14;;;;;;;0.88;0.77;;;12.80;99.90;;;;;;5035132;28;20648;-84
2022/09/01 02:10:43;;;;;;;0.70;0.70;;;13.10;99.90;;;;;;5034780;28;20226;-84
2022/09/01 02:13:15;;;;;;;2.08;0.80;;;12.80;99.90;;;;;;5017259;28;20176;-84
2022/09/01 02:15:44;;;;;;;2.45;1.45;;;12.80;99.90;;;;;;5034549;28;20181;-84
2022/09/01 02:18:18;;;;;;;0.85;0.70;;;13.30;99.90;;;;;;5034992;28;20200;-84
2022/09/01 02:20:46;;;;;;;1.00;0.75;;;13.00;99.90;;;;;;5034551;28;20259;-84
2022/09/01 02:23:14;;;;;;;1.85;0.68;;;13.10;99.90;;;;;;5034881;28;20200;-84
2022/09/01 02:25:43;;;;;;;0.95;0.85;;;12.50;99.90;;;;;;5017030;28;20250;-84
2022/09/01 02:28:14;;;;;;;0.60;0.60;;;13.10;99.90;;;;;;5034636;28;20256;-84
2022/09/01 02:30:41;;;;;;;0.47;0.47;;;13.00;99.90;;;;;;5016333;28;20232;-84
2022/09/01 02:33:08;;;;;;;0.60;0.60;;;;;;;;;;5034619;28;20215;-85
2022/09/01 02:35:36;;;;;;;0.40;0.40;;;12.60;99.90;;;;;;5034377;28;20172;-84
2022/09/01 02:38:03;;;;;;;1.38;0.80;;;12.90;99.90;;;;;;5034495;28;20211;-85
2022/09/01 02:40:30;;;;;;;0.95;0.90;;;;;;;;;;5034280;28;20254;-85
2022/09/01 02:43:00;;;;;;;0.90;0.82;;;12.70;99.90;;;;;;5016941;28;20185;-84
2022/09/01 02:45:28;;;;;;;0.45;0.45;;;12.80;99.90;;;;;;5016616;28;20641;-84
2022/09/01 02:47:56;;;;;;;0.50;0.50;;;12.30;99.90;;;;;;5034538;28;20176;-84
2022/09/01 02:50:23;;;;;;;0.45;0.45;;;12.50;99.90;;;;;;5034362;28;20177;-84
2022/09/01 02:52:53;;;;;;;0.60;0.60;;;12.50;99.90;;;;;;5034272;28;20703;-84
2022/09/01 02:55:21;;;;;;;0.40;0.40;;;12.40;99.90;;;;;;5034092;28;20180;-84
2022/09/01 02:57:54;;;;;;;0.77;0.57;;;12.60;99.90;;;;;;5034081;28;20680;-84
2022/09/01 03:00:27;;;;;;;0.80;0.80;;;;;;;;;;5034274;28;20184;-85
2022/09/01 03:02:55;;;;;;;0.43;0.43;;;12.90;99.90;;;;;;5034543;28;20203;-85
2022/09/01 03:05:25;;;;;;;0.40;0.40;;;12.50;99.90;;;;;;5034094;28;20180;-85
2022/09/01 03:07:55;;;;;;;0.70;0.57;;;12.40;99.90;;;;;;5034255;28;20161;-84
2022/09/01 03:10:23;;;;;;;0.50;0.50;;;12.90;99.90;;;;;;5034411;28;20235;-84
2022/09/01 03:12:49;;;;;;;0.75;0.70;;;12.30;99.90;;;;;;5033710;28;20205;-85
2022/09/01 03:15:15;;;;;;;1.15;0.73;;;;;;;;;;5033917;28;20184;-84
2022/09/01 03:17:41;;;;;;;0.65;0.65;;;;;;;;;;5033628;28;20168;-84
2022/09/01 03:20:07;;;;;;;0.60;0.60;;;12.40;99.90;;;;;;5033992;28;20174;-84
2022/09/01 03:22:32;;;;;;;0.32;0.32;;;;;;;;;;5015884;28;20271;-85
2022/09/01 03:24:59;;;;;;;0.40;0.40;;;;;;;;;;5016247;28;20215;-84
2022/09/01 03:27:25;;;;;;;0.43;0.43;;;12.00;99.90;;;;;;5001211;28;20188;-84
2022/09/01 03:29:51;;;;;;;0.30;0.30;;;;;;;;;;5035901;28;20224;-84
2022/09/01 03:32:17;;;;;;;0.50;0.50;;;;;;;;;;5004418;28;20186;-83
2022/09/01 03:34:43;;;;;;;1.25;0.70;;;12.10;99.90;;;;;;4994490;28;20184;-83
2022/09/01 03:37:11;;;;;;;0.47;0.47;;;;;;;;;;5021556;28;20216;-84
2022/09/01 03:39:37;;;;;;;0.93;0.80;;;12.40;99.90;;;;;;5038042;28;20172;-84
2022/09/01 03:42:03;;;;;;;0.52;0.52;;;12.20;99.90;;;;;;5041045;28;20185;-84
2022/09/01 03:44:29;;;;;;;0.50;0.50;;;;;;;;;;5019922;28;20240;-84
2022/09/01 03:46:57;;;;;;;0.52;0.52;;;;;;;;;;5035482;28;20205;-85
2022/09/01 03:49:27;;;;;;;0.90;0.70;;;;;;;;;;4998840;28;20254;-84
2022/09/01 03:51:53;;;;;;;0.50;0.40;;;12.50;99.90;;;;;;5012313;28;20183;-84
2022/09/01 03:54:22;;;;;;;0.73;0.73;;;;;;;;;;4994710;28;20193;-84
2022/09/01 03:56:48;;;;;;;0.45;0.45;;;;;;;;;;5013989;28;20231;-84
2022/09/01 03:59:15;;;;;;;0.68;0.60;;;;;;;;;;5023105;28;20201;-84
2022/09/01 04:01:42;;;;;;;0.50;0.50;;;11.80;99.90;;;;;;5011324;28;20173;-85
2022/09/01 04:04:12;;;;;;;0.77;0.60;;;11.80;99.90;;;;;;4993859;28;20223;-84
2022/09/01 04:06:40;;;;;;;0.40;0.40;;;11.80;99.90;;;;;;5011596;28;20204;-85
2022/09/01 04:09:05;;;;;;;1.52;1.13;;;12.20;99.90;;;;;;5011574;28;20307;-84
2022/09/01 04:11:32;;;;;;;0.50;0.50;;;;;;;;;;5014412;28;20275;-84
2022/09/01 04:13:59;;;;;;;0.57;0.40;;;12.30;99.90;;;;;;5022166;28;20185;-84
2022/09/01 04:19:35;;;;;;;0.50;0.50;;;12.00;99.90;;;;;;4949913;28;20207;-84
2022/09/01 04:22:01;;;;;;;0.40;0.40;;;11.70;99.90;;;;;;4934754;29;20274;-84
2022/09/01 04:24:29;;;;;;;4.38;2.53;;;12.20;99.90;;;;;;4981121;28;20288;-85
2022/09/01 04:26:57;;;;;;;0.40;0.40;;;12.00;99.90;;;;;;5023673;28;20755;-84
2022/09/01 04:29:26;;;;;;;0.65;0.60;;;11.60;99.90;;;;;;5011266;28;20220;-84
2022/09/01 04:31:57;;;;;;;0.40;0.40;;;12.30;99.90;;;;;;4980663;28;20254;-86
2022/09/01 04:34:23;;;;;;;0.50;0.50;;;12.00;99.90;;;;;;5011691;28;20204;-85
2022/09/01 04:36:53;;;;;;;0.60;0.60;;;11.90;99.90;;;;;;4994890;28;20181;-85
2022/09/01 04:39:19;;;;;;;0.60;0.60;;;;;;;;;;5012201;28;20214;-85
2022/09/01 04:41:45;;;;;;;0.88;0.50;;;;;;;;;;4993652;28;20185;-85
2022/09/01 04:44:15;;;;;;;0.70;0.70;;;12.00;99.90;;;;;;5008023;28;20209;-85
2022/09/01 04:46:45;;;;;;;0.40;0.40;;;12.40;99.90;;;;;;4994450;28;20189;-84
2022/09/01 04:49:10;;;;;;;0.63;0.63;;;12.50;99.90;;;;;;5011560;28;20264;-84
2022/09/01 04:51:39;;;;;;;0.68;0.68;;;12.20;99.90;;;;;;5011926;28;20578;-84
2022/09/01 04:54:08;;;;;;;0.30;0.30;;;12.00;99.90;;;;;;5010846;28;20218;-82
2022/09/01 04:56:34;;;;;;;0.52;0.50;;;12.30;99.90;;;;;;5012532;28;20653;-84
2022/09/01 04:59:05;;;;;;;0.82;0.82;;;;;;;;;;4993092;28;20200;-84
2022/09/01 05:01:41;;;;;;;0.80;0.80;;;12.70;99.90;;;;;;4996783;28;20231;-84
2022/09/01 05:04:18;;;;;;;0.95;0.88;;;12.50;99.90;;;;;;5017697;28;20208;-86
2022/09/01 05:06:48;;;;;;;0.70;0.70;;;12.40;99.90;;;;;;5033841;28;20172;-86
2022/09/01 05:09:16;;;;;;;0.50;0.50;;;12.40;99.90;;;;;;5034050;28;20189;-86
2022/09/01 05:11:44;;;;;;;0.43;0.43;;;;;;;;;;5035911;28;20173;-84
2022/09/01 05:14:11;;;;;;;0.30;0.30;;;12.20;99.90;;;;;;5035027;28;20271;-86
2022/09/01 05:16:39;;;;;;;0.98;0.80;;;12.20;99.90;;;;;;5034156;28;20195;-84
2022/09/01 05:19:06;;;;;;;0.80;0.75;;;12.40;99.90;;;;;;5033990;28;20195;-85
2022/09/01 05:21:32;;;;;;;0.82;0.60;;;;;;;;;;5018376;28;20208;-85
2022/09/01 05:24:00;;;;;;;0.70;0.70;;;12.40;99.90;;;;;;5001826;28;20223;-85
2022/09/01 05:26:33;;;;;;;0.40;0.40;;;12.90;99.90;;;;;;5035857;28;20197;-85
2022/09/01 05:29:03;;;;;;;0.65;0.65;;;12.80;99.90;;;;;;5017680;28;20541;-85
2022/09/01 05:31:36;;;;;;;0.40;0.40;;;12.50;99.90;;;;;;5035704;28;20173;-86
2022/09/01 05:34:02;;;;;;;0.50;0.50;;;;;;;;;;5018056;28;20279;-84
2022/09/01 05:36:32;;;;;;;1.58;0.90;;;12.70;99.90;;;;;;5035822;28;20234;-85
2022/09/01 05:38:58;;;;;;;1.38;1.00;;;12.60;99.90;;;;;;5017650;28;20556;-85
2022/09/01 05:41:25;;;;;;;0.40;0.40;;;;;;;;;;5035523;28;20210;-86
2022/09/01 05:43:51;;;;;;;0.85;0.60;;;;;;;;;;5035306;28;20212;-85
2022/09/01 05:46:25;;;;;;;0.40;0.40;;;12.90;99.90;;;;;;5035207;28;20230;-85
2022/09/01 05:48:52;;;;;;;0.82;0.82;;;13.00;99.90;;;;;;5035771;28;20795;-87
2022/09/01 05:51:25;;;;;;;0.52;0.47;;;13.60;99.90;;;;;;5035152;28;20511;-86
2022/09/01 05:53:57;;;;;;;0.70;0.70;;;13.20;99.90;;;;;;5035118;28;20188;-85
2022/09/01 05:56:25;;;;;;;0.80;0.80;;;13.20;99.90;;;;;;5035088;28;20539;-85
2022/09/01 05:58:52;;;;;;;0.75;0.60;;;13.40;99.90;;;;;;5034980;28;20689;-86
2022/09/01 06:01:21;;;;;;;0.50;0.50;;;13.30;99.90;;;;;;5035116;28;20172;-86
2022/09/01 06:03:53;;;;;;;0.70;0.65;;;13.00;99.90;;;;;;5017300;28;20581;-85
2022/09/01 06:06:21;;;;;;;0.80;0.80;;;13.90;99.90;;;;;;5034835;28;20255;-86
2022/09/01 06:08:51;;;;;;;0.38;0.38;;;13.20;99.90;;;;;;5034894;28;20181;-86
2022/09/01 06:11:18;;;;;;;0.60;0.60;;;13.60;99.90;;;;;;5034628;28;20173;-86
2022/09/01 06:13:46;;;;;;;0.70;0.70;;;13.60;99.90;;;;;;5016716;28;20645;-88
2022/09/01 06:16:14;;;;;;;0.50;0.50;;;13.60;99.90;;;;;;5034728;28;20268;-87
2022/09/01 06:18:42;;;;;;;1.20;0.70;;;13.30;99.90;;;;;;5017071;28;20185;-88
2022/09/01 06:21:13;;;;;;;0.82;0.82;;;13.60;99.90;;;;;;5033619;28;20212;-86
2022/09/01 06:23:40;;;;;;;0.70;0.70;;;13.30;99.90;;;;;;5017255;28;20669;-87
2022/09/01 06:26:06;;;;;;;0.60;0.60;;;13.80;99.90;;;;;;5034997;28;20264;-86
2022/09/01 06:28:32;;;;;;;0.95;0.70;;;;;;;;;;5034781;28;20180;-86
2022/09/01 06:30:59;;;;;;;0.50;0.50;;;;;;;;;;5034291;28;20228;-85
2022/09/01 06:33:25;;;;;;;0.73;0.73;;;14.10;99.90;;;;;;5034733;28;20184;-86
2022/09/01 06:35:54;;;;;;;0.50;0.50;;;14.30;99.90;;;;;;5034455;28;20191;-86
2022/09/01 06:38:20;;;;;;;0.50;0.50;;;14.40;99.90;;;;;;5034373;28;20173;-86
2022/09/01 06:40:47;;;;;;;0.85;0.55;;;;;;;;;;5016536;28;20688;-86
2022/09/01 06:43:15;;;;;;;0.65;0.65;;;;;;;;;;5034296;28;20168;-86
2022/09/01 06:45:43;;;;;;;0.57;0.57;;;14.30;99.90;;;;;;5034301;28;20273;-87
2022/09/01 06:48:14;;;;;;;5.00;1.05;;;14.70;99.90;;;;;;5034333;28;20196;-87
2022/09/01 06:50:41;;;;;;;0.65;0.55;;;;;;;;;;5017411;28;20185;-86
2022/09/01 06:53:09;;;;;;;1.05;0.85;;;14.90;99.90;;;;;;5034469;28;20173;-86
2022/09/01 06:55:37;;;;;;;0.82;0.75;;;14.90;99.90;;;;;;5034427;28;20180;-86
2022/09/01 06:58:07;;;;;;;0.50;0.50;;;15.20;99.90;;;;;;5033944;28;20185;-86
2022/09/01 07:00:40;;;;;;;0.70;0.70;;;15.10;99.90;;;;;;5034275;28;20188;-86
2022/09/01 07:03:13;;;;;;;1.75;1.13;;;15.30;99.90;;;;;;5016813;28;20226;-85
2022/09/01 07:05:44;;;;;;;1.13;1.00;;;15.00;99.90;;;;;;5034658;28;20189;-85
2022/09/01 07:08:16;;;;;;;1.10;1.00;;;15.20;99.90;;;;;;5035260;28;20177;-85
2022/09/01 07:10:48;;;;;;;0.52;0.43;;;14.90;99.90;;;;;;5034775;28;20176;-86
2022/09/01 07:13:20;;;;;;;0.40;0.40;;;15.30;99.90;;;;;;5034762;28;20172;-86
2022/09/01 07:15:48;;;;;;;0.30;0.30;;;;;;;;;;5017145;28;20192;-86
2022/09/01 07:18:16;;;;;;;0.65;0.65;;;;;;;;;;5035039;28;20180;-86
2022/09/01 07:20:43;;;;;;;0.93;0.85;;;15.90;99.90;;;;;;5035071;28;20195;-86
2022/09/01 07:23:10;;;;;;;0.88;0.80;;;15.70;99.90;;;;;;5034846;28;20173;-85
2022/09/01 07:25:40;;;;;;;2.25;0.60;;;15.80;99.90;;;;;;5033676;28;20191;-86
2022/09/01 07:28:07;;;;;;;1.00;0.60;;;16.30;99.90;;;;;;5034921;28;20569;-85
2022/09/01 07:30:39;;;;;;;0.52;0.52;;;15.80;99.90;;;;;;5036793;28;20245;-84
2022/09/01 07:33:10;;;;;;;0.60;0.52;;;16.40;99.90;;;;;;5018255;28;20208;-85
2022/09/01 07:35:37;;;;;;;0.60;0.52;;;16.90;99.90;;;;;;5016814;28;20655;-85
2022/09/01 07:38:05;;;;;;;0.50;0.50;;;16.30;99.90;;;;;;5033441;28;20176;-87
2022/09/01 07:40:31;;;;;;;0.30;0.30;;;16.90;99.90;;;;;;5015977;28;20578;-86
2022/09/01 07:42:57;;;;;;;0.57;0.50;;;;;;;;;;5033268;28;20200;-86
2022/09/01 07:45:24;;;;;;;0.50;0.50;;;16.30;99.90;;;;;;5033236;28;20208;-86
2022/09/01 07:47:50;;;;;;;0.47;0.47;;;;;;;;;;5033674;28;20173;-87
2022/09/01 07:50:17;;;;;;;0.50;0.50;;;;;;;;;;5033772;28;20537;-85
2022/09/01 07:52:43;;;;;;;0.98;0.55;;;;;;;;;;5016067;28;20173;-86
2022/09/01 07:55:13;;;;;;;1.85;1.13;;;15.90;99.90;;;;;;4999781;28;20644;-86
2022/09/01 07:57:41;;;;;;;1.50;0.70;;;16.70;99.90;;;;;;5033353;28;20173;-86
2022/09/01 08:00:10;;;;;;;0.32;0.30;;;17.10;99.90;;;;;;5033418;28;20188;-86
2022/09/01 08:02:37;;;;;;;0.20;0.20;;;16.60;99.90;;;;;;5034181;28;20187;-86
2022/09/01 08:05:08;;;;;;;0.30;0.30;;;17.40;99.90;;;;;;5016024;28;20262;-85
2022/09/01 08:07:34;;;;;;;3.55;0.68;;;17.20;99.90;;;;;;5015323;28;20276;-85
2022/09/01 08:10:00;;;;;;;1.00;0.50;;;;;;;;;;5033362;28;20173;-85
2022/09/01 08:12:26;;;;;;;1.35;0.63;;;;;;;;;;5033119;28;20196;-85
2022/09/01 08:14:52;;;;;;;0.50;0.50;;;;;;;;;;5033077;28;20237;-85
2022/09/01 08:17:20;;;;;;;0.20;0.20;;;17.40;99.90;;;;;;5015308;28;20180;-84
2022/09/01 08:19:46;;;;;;;1.17;0.73;;;;;;;;;;5033265;28;20176;-84
2022/09/01 08:22:13;;;;;;;1.85;1.20;;;17.00;99.90;;;;;;5032970;28;20638;-85
2022/09/01 08:24:39;;;;;;;0.65;0.43;;;17.00;99.90;;;;;;5033163;28;20330;-85
2022/09/01 08:27:05;;;;;;;0.43;0.40;;;;;;;;;;5015549;28;20271;-85
2022/09/01 08:29:31;;;;;;;0.75;0.40;;;;;;;;;;5038368;28;20232;-84
2022/09/01 08:31:58;;;;;;;0.30;0.30;;;17.70;99.90;;;;;;5029763;28;20171;-85
2022/09/01 08:34:24;;;;;;;0.30;0.30;;;;;;;;;;5041840;28;20176;-85
2022/09/01 08:36:50;;;;;;;1.13;0.38;;;;;;;;;;5017137;28;20700;-85
2022/09/01 08:39:16;;;;;;;1.67;0.50;;;17.60;99.90;;;;;;5036647;28;20188;-85
2022/09/01 08:42:01;;;;;;;1.00;0.35;;;17.50;99.90;;;;;;5018962;28;20660;-85
2022/09/01 08:44:27;;;;;;;0.85;0.35;;;;;;;;;;5036564;28;20257;-85
2022/09/01 08:47:00;;;;;;;0.20;0.20;;;17.90;99.90;;;;;;5036472;28;20176;-85
2022/09/01 08:49:25;;;;;;;0.30;0.30;;;17.40;99.90;;;;;;5036966;28;20207;-85
2022/09/01 08:51:59;;;;;;;3.63;0.43;;;18.10;99.90;;;;;;5037457;28;20185;-85
2022/09/01 08:54:41;;;;;;;0.30;0.30;;;18.20;99.90;;;;;;5026436;28;20239;-84
2022/09/01 08:57:25;;;;;;;0.25;0.25;;;17.90;99.90;;;;;;4999913;28;20230;-85
2022/09/01 08:59:51;;;;;;;0.25;0.25;;;18.30;97.80;;;;;;4999055;28;20192;-85
2022/09/01 09:02:17;;;;;;;0.20;0.20;;;;;;;;;;5014229;28;20203;-86
2022/09/01 09:05:02;;;;;;;0.30;0.30;;;18.50;96.10;;;;;;5014289;28;20209;-85
2022/09/01 09:08:03;;;;;;;0.20;0.20;;;18.40;99.90;;;;;;4996646;28;20185;-85
2022/09/01 09:10:52;;;;;;;0.63;0.30;;;18.70;95.00;;;;;;4996304;28;20551;-85
2022/09/01 09:13:55;;;;;;;0.20;0.20;;;19.30;98.60;;;;;;4996795;28;20272;-86
2022/09/01 09:16:30;;;;;;;0.20;0.20;;;18.60;99.90;;;;;;5015767;28;20187;-84
2022/09/01 09:19:03;;;;;;;0.45;0.25;;;18.80;90.40;;;;;;5016413;28;20622;-85
2022/09/01 09:21:37;;;;;;;0.63;0.20;;;18.30;99.90;;;;;;5015902;28;20729;-85
2022/09/01 09:24:11;;;;;;;0.32;0.32;;;18.90;98.80;;;;;;5016373;28;20212;-84
2022/09/01 09:26:37;;;;;;;0.20;0.20;;;;;;;;;;5016029;28;20185;-87
2022/09/01 09:29:03;;;;;;;2.08;0.30;;;19.40;94.80;;;;;;5017118;28;20648;-86
2022/09/01 09:31:42;;;;;;;4.78;0.55;;;19.50;97.50;;;;;;5015825;28;20182;-86
2022/09/01 09:34:31;;;;;;;0.20;0.20;;;19.10;96.60;;;;;;4998792;28;20638;-85
2022/09/01 09:37:20;;;;;;;0.47;0.28;;;19.30;79.20;;;;;;5005542;28;20654;-86
2022/09/01 09:40:18;;;;;;;0.28;0.28;;;19.40;79.10;;;;;;5015334;28;20220;-85
2022/09/01 09:42:55;;;;;;;0.50;0.28;;;19.10;96.60;;;;;;5015855;28;20181;-85
2022/09/01 09:45:23;;;;;;;0.20;0.20;;;19.60;75.70;;;;;;5015909;28;20208;-84
2022/09/01 09:47:49;;;;;;;0.43;0.43;;;;;;;;;;5015770;28;20174;-85
2022/09/01 09:50:31;;;;;;;0.40;0.40;;;20.00;95.60;;;;;;4982053;28;20212;-84
2022/09/01 09:53:13;;;;;;;1.13;0.35;;;20.20;77.60;;;;;;5016113;28;20260;-84
2022/09/01 09:55:51;;;;;;;0.40;0.28;;;19.60;77.00;;;;;;4998040;28;20540;-86
2022/09/01 09:58:17;;;;;;;1.05;0.30;;;;;;;;;;5016644;28;20188;-85
2022/09/01 10:00:59;;;;;;;0.38;0.38;;;19.50;76.20;;;;;;5015969;28;20189;-85
2022/09/01 10:03:35;;;;;;;0.47;0.43;;;19.70;77.60;;;;;;4997725;28;20173;-85
2022/09/01 10:06:01;;;;;;;0.93;0.30;;;;;;;;;;5015555;28;20185;-85
2022/09/01 10:08:35;;;;;;;0.80;0.30;;;;;;;;;;5015545;28;20657;-85
2022/09/01 10:11:03;;;;;;;1.15;0.47;;;20.10;72.50;;;;;;4997963;28;20181;-85
2022/09/01 10:13:30;;;;;;;0.30;0.20;;;19.90;71.30;;;;;;5015316;28;20184;-85
2022/09/01 10:15:59;;;;;;;0.47;0.40;;;20.00;71.90;;;;;;5000518;28;20546;-86
2022/09/01 10:18:31;;;;;;;0.20;0.20;;;19.90;70.60;;;;;;5018673;28;20193;-87
2022/09/01 10:21:25;;;;;;;1.42;0.52;;;19.70;93.50;;;;;;5019555;28;20261;-85
2022/09/01 10:23:52;;;;;;;0.95;0.30;;;19.90;68.30;;;;;;5016969;28;20208;-84
2022/09/01 10:26:38;;;;;;;0.30;0.30;;;20.20;76.90;;;;;;5007323;28;20181;-85
2022/09/01 10:29:31;;;;;;;0.38;0.38;;;19.40;93.70;;;;;;5036270;28;20173;-84
2022/09/01 10:31:59;;;;;;;2.65;0.30;;;20.20;67.70;;;;;;5009529;28;20193;-85
2022/09/01 10:34:28;;;;;;;0.50;0.30;;;20.30;67.70;;;;;;5031869;28;20189;-84
2022/09/01 10:36:54;;;;;;;0.20;0.20;;;;;;;;;;5010908;28;20537;-85
2022/09/01 10:39:20;;;;;;;0.28;0.28;;;;;;;;;;4999346;28;20184;-84
2022/09/01 10:41:55;;;;;;;0.63;0.30;;;20.30;91.80;;;;;;5015275;28;20185;-84
2022/09/01 10:44:23;;;;;;;0.63;0.38;;;20.40;69.60;;;;;;5014934;28;20227;-84
2022/09/01 10:46:50;;;;;;;0.40;0.30;;;20.60;68.00;;;;;;5014564;28;20243;-84
2022/09/01 10:49:41;;;;;;;0.28;0.28;;;20.50;92.10;;;;;;5014880;28;20230;-85
2022/09/01 10:52:07;;;;;;;0.40;0.40;;;;;;;;;;5014742;28;20181;-84
2022/09/01 10:54:38;;;;;;;0.20;0.20;;;20.70;92.70;;;;;;5014303;28;20185;-85
2022/09/01 10:57:20;;;;;;;0.50;0.50;;;20.40;92.20;;;;;;4996854;28;20258;-85
2022/09/01 10:59:46;;;;;;;0.20;0.20;;;;;;;;;;5014484;28;20223;-84
2022/09/01 11:02:18;;;;;;;0.30;0.30;;;21.30;91.90;;;;;;5014050;28;20193;-84
2022/09/01 11:04:47;;;;;;;0.40;0.30;;;;;;;;;;5014242;28;20263;-86
2022/09/01 11:07:24;;;;;;;2.35;0.30;;;21.40;92.00;;;;;;5015090;28;20181;-83
2022/09/01 11:09:50;;;;;;;0.50;0.50;;;;;;;;;;5014631;28;20185;-83
2022/09/01 11:12:19;;;;;;;0.20;0.20;;;21.20;92.30;;;;;;5014505;28;20181;-84
2022/09/01 11:14:59;;;;;;;0.57;0.57;;;21.60;92.60;;;;;;5014011;28;20177;-85
2022/09/01 11:17:58;;;;;;;0.28;0.28;;;21.80;91.50;;;;;;5014444;28;20173;-85
2022/09/01 11:20:33;;;;;;;0.52;0.30;;;21.10;64.40;;;;;;4954550;28;20583;-84
2022/09/01 11:23:23;;;;;;;0.30;0.30;;;20.80;91.50;;;;;;5009015;28;20570;-86
2022/09/01 11:25:50;;;;;;;0.30;0.30;;;21.00;66.00;;;;;;4996356;28;20537;-85
2022/09/01 11:28:18;;;;;;;0.45;0.25;;;;;;;;;;4996662;28;20277;-85
2022/09/01 11:30:51;;;;;;;0.57;0.30;;;;;;;;;;5013811;28;20319;-85
2022/09/01 11:33:49;;;;;;;0.20;0.20;;;20.20;92.00;;;;;;4991829;28;20184;-85
2022/09/01 11:36:17;;;;;;;0.17;0.17;;;;;;;;;;5009515;28;20174;-83
2022/09/01 11:38:50;;;;;;;0.20;0.20;;;20.70;66.30;;;;;;4995435;28;20268;-83
2022/09/01 11:41:32;;;;;;;0.20;0.20;;;20.70;66.70;;;;;;5013485;28;20189;-84
2022/09/01 11:44:00;;;;;;;0.45;0.45;;;20.10;67.10;;;;;;5013051;28;21096;-85
2022/09/01 11:46:33;;;;;;;0.52;0.47;;;19.80;68.30;;;;;;4998979;28;20182;-84
2022/09/01 11:49:07;;;;;;;0.70;0.43;;;20.10;93.20;;;;;;4994089;28;20178;-84
2022/09/01 11:51:44;;;;;;;0.50;0.30;;;19.90;68.80;;;;;;4976858;28;20189;-85
2022/09/01 11:54:11;;;;;;;0.45;0.43;;;19.60;92.50;;;;;;4994510;28;20193;-84
2022/09/01 11:56:37;;;;;;;0.20;0.20;;;;;;;;;;4977443;28;20224;-86
2022/09/01 11:59:03;;;;;;;0.10;0.10;;;;;;;;;;4993932;28;20206;-84
2022/09/01 12:01:29;;;;;;;0.38;0.20;;;;;;;;;;4994136;28;20651;-85
2022/09/01 12:03:55;;;;;;;0.32;0.30;;;21.50;92.00;;;;;;4993600;28;20214;-84
2022/09/01 12:06:25;;;;;;;0.30;0.30;;;20.90;64.70;;;;;;4994447;28;20217;-82
2022/09/01 12:09:03;;;;;;;0.10;0.10;;;20.90;66.30;;;;;;4994128;28;20178;-83
2022/09/01 12:11:32;;;;;;;0.25;0.25;;;21.20;64.70;;;;;;4993756;28;20293;-83
2022/09/01 12:14:09;;;;;;;0.93;0.43;;;21.70;90.90;;;;;;4995002;28;20289;-84
2022/09/01 12:16:38;;;;;;;0.13;0.13;;;21.30;64.10;;;;;;4993832;28;20170;-84
2022/09/01 12:19:05;;;;;;;0.10;0.10;;;21.00;66.40;;;;;;4993584;28;20977;-84
2022/09/01 12:21:41;;;;;;;0.20;0.20;;;20.60;91.90;;;;;;4993744;28;20260;-84
2022/09/01 12:24:22;;;;;;;1.92;1.30;;;20.90;91.30;;;;;;4993117;28;20217;-83
2022/09/01 12:26:50;;;;;;;1.08;0.63;;;21.20;66.00;;;;;;4993144;28;20177;-84
2022/09/01 12:29:16;;;;;;;0.63;0.25;;;21.40;65.70;;;;;;4993485;28;20239;-84
2022/09/01 12:31:45;;;;;;;0.57;0.30;;;21.60;63.20;;;;;;4993751;28;20178;-83
2022/09/01 12:35:02;;;;;;;0.50;0.50;;;21.70;70.00;;;;;;4992954;28;20269;-84
2022/09/01 12:37:28;;;;;;;0.90;0.63;;;;;;;;;;4977065;28;20252;-83
2022/09/01 12:39:56;;;;;;;0.60;0.38;;;21.70;61.40;;;;;;4975847;28;20189;-84
2022/09/01 12:42:29;;;;;;;1.75;0.40;;;;;;;;;;4993533;28;20232;-84
2022/09/01 12:45:09;;;;;;;0.20;0.20;;;21.30;64.10;;;;;;4975933;28;20232;-85
2022/09/01 12:47:35;;;;;;;0.73;0.57;;;;;;;;;;4976225;28;20182;-84
2022/09/01 12:50:01;;;;;;;0.45;0.38;;;;;;;;;;4975536;28;20186;-85
2022/09/01 12:52:28;;;;;;;0.28;0.25;;;22.00;91.90;;;;;;4993571;28;20261;-84
2022/09/01 12:55:05;;;;;;;0.20;0.20;;;21.60;91.20;;;;;;4994284;28;20213;-86
2022/09/01 12:57:37;;;;;;;0.45;0.45;;;22.00;66.10;;;;;;4976069;28;20643;-85
2022/09/01 13:00:24;;;;;;;0.30;0.30;;;22.80;90.00;;;;;;4995099;28;20582;-85
2022/09/01 13:02:54;;;;;;;0.20;0.20;;;21.80;61.40;;;;;;4993818;28;20212;-87
2022/09/01 13:05:40;;;;;;;1.20;0.68;;;22.00;88.30;;;;;;5010784;28;20205;-85
2022/09/01 13:08:09;;;;;;;0.10;0.10;;;22.10;61.60;;;;;;5010631;28;20169;-83
2022/09/01 13:10:47;;;;;;;0.20;0.20;;;22.00;61.70;;;;;;5010664;28;20716;-84
2022/09/01 13:13:13;;;;;;;0.25;0.20;;;21.90;61.90;;;;;;5010545;28;20807;-85
2022/09/01 13:15:49;;;;;;;0.60;0.38;;;22.00;90.10;;;;;;5010577;28;20193;-85
2022/09/01 13:18:15;;;;;;;0.30;0.20;;;;;;;;;;5012873;28;20173;-84
2022/09/01 13:20:41;;;;;;;2.60;0.20;;;;;;;;;;5012719;28;20192;-84
2022/09/01 13:23:07;;;;;;;0.65;0.35;;;;;;;;;;5013178;28;20185;-86
2022/09/01 13:25:34;;;;;;;0.43;0.20;;;;;;;;;;5016025;28;20209;-85
2022/09/01 13:28:01;;;;;;;0.55;0.43;;;;;;;;;;5016091;28;20182;-84
2022/09/01 13:30:28;;;;;;;0.70;0.40;;;;;;;;;;5016065;28;20237;-85
2022/09/01 13:32:55;;;;;;;0.22;0.22;;;;;;;;;;5015550;28;20188;-85
2022/09/01 13:35:22;;;;;;;0.30;0.30;;;20.20;66.10;;;;;;4997757;28;20848;-86
2022/09/01 13:37:48;;;;;;;0.40;0.20;;;20.10;67.50;;;;;;5015476;28;20267;-85